createdAt,value
2023-03-23T00:00:35.793Z,0
2023-03-23T00:05:59.844Z,0
2023-03-23T00:11:22.427Z,0
2023-03-23T00:16:45.350Z,0
2023-03-23T00:27:40.009Z,0
2023-03-23T00:33:10.345Z,0
2023-03-23T00:38:33.516Z,0
2023-03-23T00:43:56.083Z,0
2023-03-23T00:49:18.750Z,1
2023-03-23T00:54:41.581Z,0
2023-03-23T01:00:08.933Z,0
2023-03-23T01:05:31.721Z,0
2023-03-23T01:10:54.381Z,0
2023-03-23T01:16:27.278Z,0
2023-03-23T01:21:50.263Z,0
2023-03-23T01:27:12.823Z,1
2023-03-23T01:32:36.222Z,0
2023-03-23T01:37:58.955Z,0
2023-03-23T01:43:21.222Z,0
2023-03-23T01:48:44.620Z,0
2023-03-23T01:59:43.888Z,0
2023-03-23T02:05:06.577Z,0
2023-03-23T02:10:29.204Z,0
2023-03-23T02:15:52.638Z,0
2023-03-23T02:21:15.912Z,0
2023-03-23T02:26:38.786Z,0
2023-03-23T02:32:01.426Z,2
2023-03-23T02:37:24.069Z,0
2023-03-23T02:42:46.915Z,0
2023-03-23T02:48:09.931Z,0
2023-03-23T02:53:35.395Z,0
2023-03-23T02:58:57.804Z,0
2023-03-23T03:04:20.588Z,0
2023-03-23T03:09:52.014Z,0
2023-03-23T03:20:48.887Z,0
2023-03-23T03:26:12.362Z,0
2023-03-23T03:31:43.665Z,0
2023-03-23T03:37:06.413Z,0
2023-03-23T03:42:29.106Z,0
2023-03-23T03:47:52.545Z,0
2023-03-23T03:53:15.398Z,0
2023-03-23T03:58:38.379Z,0
2023-03-23T04:04:01.856Z,0
2023-03-23T04:09:24.911Z,0
2023-03-23T04:14:48.596Z,0
2023-03-23T04:20:14.682Z,0
2023-03-23T04:25:38.090Z,0
2023-03-23T04:31:06.520Z,0
2023-03-23T04:37:07.196Z,0
2023-03-23T04:42:30.317Z,0
2023-03-23T04:48:10.854Z,0
2023-03-23T04:53:33.514Z,3
2023-03-23T04:58:59.369Z,0
2023-03-23T05:04:22.490Z,0
2023-03-23T05:15:22.307Z,0
2023-03-23T05:20:44.912Z,0
2023-03-23T05:26:07.515Z,3
2023-03-23T05:31:30.065Z,7
2023-03-23T05:36:52.631Z,16
2023-03-23T05:42:15.067Z,26
2023-03-23T05:47:37.384Z,28.1
2023-03-23T05:53:08.738Z,43
2023-03-23T05:58:33.851Z,65.2
2023-03-23T06:04:07.761Z,95.2
2023-03-23T06:09:31.040Z,108.3
2023-03-23T06:14:53.626Z,105.7
2023-03-23T06:20:16.230Z,145.2
2023-03-23T06:25:43.171Z,165.8
2023-03-23T06:31:06.154Z,203.2
2023-03-23T06:36:31.696Z,181.4
2023-03-23T06:41:54.437Z,182.1
2023-03-23T06:47:16.984Z,185.5
2023-03-23T06:52:39.654Z,182.4
2023-03-23T06:58:02.314Z,190.8
2023-03-23T07:03:33.921Z,218.2
2023-03-23T07:09:17.959Z,277.4
2023-03-23T07:14:40.793Z,275.1
2023-03-23T07:20:03.605Z,272.9
2023-03-23T07:25:26.304Z,273.2
2023-03-23T07:30:54.694Z,296.5
2023-03-23T07:36:17.363Z,317.1
2023-03-23T07:47:13.235Z,324.6
2023-03-23T07:52:36.169Z,351.9
2023-03-23T07:57:59.080Z,384.4
2023-03-23T08:08:56.618Z,405.8
2023-03-23T08:14:22.386Z,448.1
2023-03-23T08:19:53.842Z,498.9
2023-03-23T08:25:18.633Z,531.9
2023-03-23T08:30:41.450Z,572.3
2023-03-23T08:36:15.857Z,578
2023-03-23T08:41:38.802Z,607.6
2023-03-23T08:47:01.424Z,739.3
2023-03-23T08:52:24.652Z,740.7
2023-03-23T08:57:46.988Z,566.3
2023-03-23T09:03:09.302Z,528.8
2023-03-23T09:08:41.320Z,570.4
2023-03-23T09:14:03.919Z,461.8
2023-03-23T09:19:26.729Z,554.3
2023-03-23T09:24:49.782Z,1202.3
2023-03-23T09:35:47.113Z,739.6
2023-03-23T09:41:23.165Z,1071.1
2023-03-23T09:46:46.368Z,686.4
2023-03-23T09:52:11.356Z,992.9
2023-03-23T09:57:39.083Z,710
2023-03-23T10:03:01.509Z,833
2023-03-23T10:08:23.796Z,586.9
2023-03-23T10:13:46.376Z,775.8
2023-03-23T10:19:11.050Z,1859.6
2023-03-23T10:24:35.442Z,2666.3
2023-03-23T10:30:05.944Z,1594.1
2023-03-23T10:35:31.886Z,1282.4
2023-03-23T10:40:53.482Z,1344.9
2023-03-23T10:46:50.037Z,858.5
2023-03-23T10:52:11.927Z,883.8
2023-03-23T10:57:34.717Z,783.8
2023-03-23T11:02:57.211Z,418.8
2023-03-23T11:08:19.538Z,775.1
2023-03-23T11:13:42.095Z,1159
2023-03-23T11:19:10.673Z,1068.6
2023-03-23T11:29:58.932Z,1064.4
2023-03-23T11:35:20.563Z,1297.3
2023-03-23T11:41:23.634Z,2318.7
2023-03-23T11:46:52.906Z,1457.9
2023-03-23T11:52:20.653Z,1616.9
2023-03-23T11:57:43.432Z,2735.7
2023-03-23T12:03:05.458Z,1414.1
2023-03-23T12:08:31.064Z,3306.2
2023-03-23T12:13:58.978Z,4340.9
2023-03-23T12:19:29.204Z,1262.7
2023-03-23T12:24:55.007Z,1750.9
2023-03-23T12:30:17.262Z,1006.8
2023-03-23T12:35:59.788Z,769.7
2023-03-23T12:41:22.063Z,764.8
2023-03-23T12:46:44.936Z,845.5
2023-03-23T12:52:09.287Z,583.4
2023-03-23T12:57:47.778Z,593.7
2023-03-23T13:08:56.439Z,270.6
2023-03-23T13:14:18.815Z,407.2
2023-03-23T13:19:45.201Z,747.1
2023-03-23T13:25:08.882Z,1158.1
2023-03-23T13:30:39.467Z,1537.3
2023-03-23T13:36:10.597Z,675.2
2023-03-23T13:41:41.160Z,774.6
2023-03-23T13:58:05.232Z,596.5
2023-03-23T14:03:27.830Z,364.7
2023-03-23T14:08:50.530Z,355.9
2023-03-23T14:14:12.832Z,291.6
2023-03-23T14:19:35.557Z,499.8
2023-03-23T14:25:01.326Z,608.1
2023-03-23T14:30:24.145Z,549.6
2023-03-23T14:35:47.398Z,485.4
2023-03-23T14:41:10.823Z,860.3
2023-03-23T14:51:45.068Z,1197.9
2023-03-23T14:57:08.795Z,508.2
2023-03-23T15:02:31.923Z,1769.6
2023-03-23T15:07:54.387Z,761.4
2023-03-23T15:13:18.713Z,1305.8
2023-03-23T15:18:40.352Z,509.2
2023-03-23T15:24:02.477Z,428.5
2023-03-23T15:29:27.071Z,449.2
2023-03-23T15:34:49.562Z,349.6
2023-03-23T15:40:56.644Z,517.8
2023-03-23T15:46:19.266Z,457.7
2023-03-23T15:51:41.874Z,362.6
2023-03-23T15:57:05.236Z,323
2023-03-23T16:02:37.233Z,291.3
2023-03-23T16:08:00.376Z,357.7
2023-03-23T16:13:23.067Z,359.3
2023-03-23T16:18:45.962Z,274.6
2023-03-23T16:24:08.501Z,253.2
2023-03-23T16:35:09.841Z,237.5
2023-03-23T16:45:58.062Z,187.9
2023-03-23T16:51:20.540Z,174.1
2023-03-23T16:56:43.284Z,150.7
2023-03-23T17:02:05.895Z,143.2
2023-03-23T17:07:28.566Z,122.4
2023-03-23T17:12:50.825Z,102.3
2023-03-23T17:18:13.431Z,99.6
2023-03-23T17:23:36.059Z,79.1
2023-03-23T17:28:58.838Z,60.5
2023-03-23T17:34:24.017Z,37.1
2023-03-23T17:39:48.245Z,31.5
2023-03-23T17:45:10.901Z,29.5
2023-03-23T17:50:34.072Z,18
2023-03-23T17:55:56.700Z,8
2023-03-23T18:01:19.241Z,3
2023-03-23T18:06:41.922Z,0
2023-03-23T18:12:04.344Z,0
2023-03-23T18:22:52.818Z,0
2023-03-23T18:28:15.513Z,0
2023-03-23T18:33:38.126Z,0
2023-03-23T18:39:06.532Z,0
2023-03-23T18:44:28.960Z,0
2023-03-23T18:49:57.212Z,0
2023-03-23T18:55:22.453Z,0
2023-03-23T19:00:45.127Z,0
2023-03-23T19:11:38.044Z,0
2023-03-23T19:17:00.578Z,0
2023-03-23T19:22:23.246Z,0
2023-03-23T19:29:03.703Z,0
2023-03-23T19:34:32.774Z,0
2023-03-23T19:39:56.491Z,0
2023-03-23T19:45:19.625Z,0
2023-03-23T19:50:47.545Z,0
2023-03-23T19:56:11.745Z,0
2023-03-23T20:01:37.361Z,0
2023-03-23T20:07:00.396Z,0
2023-03-23T20:12:22.793Z,0
2023-03-23T20:17:45.566Z,0
2023-03-23T20:23:08.255Z,0
2023-03-23T20:28:30.916Z,0
2023-03-23T20:34:02.827Z,0
2023-03-23T20:39:25.592Z,0
2023-03-23T20:44:48.345Z,0
2023-03-23T20:50:11.248Z,0
2023-03-23T20:55:55.072Z,0
2023-03-23T21:01:18.128Z,0
2023-03-23T21:06:51.211Z,0
2023-03-23T21:12:13.762Z,0
2023-03-23T21:17:42.045Z,0
2023-03-23T21:23:05.371Z,0
2023-03-23T21:28:28.081Z,0
2023-03-23T21:33:57.795Z,0
2023-03-23T21:39:21.606Z,0
2023-03-23T21:44:46.469Z,0
2023-03-23T21:50:09.207Z,0
2023-03-23T21:55:31.893Z,0
2023-03-23T22:00:54.512Z,0
2023-03-23T22:06:16.945Z,0
2023-03-23T22:11:39.882Z,0
2023-03-23T22:17:02.444Z,0
2023-03-23T22:22:24.800Z,0
2023-03-23T22:27:47.364Z,0
2023-03-23T22:33:09.825Z,0
2023-03-23T22:38:32.530Z,0
2023-03-23T22:43:55.102Z,0
2023-03-23T22:49:39.325Z,0
2023-03-23T22:55:02.124Z,0
2023-03-23T23:05:50.755Z,0
2023-03-23T23:11:13.239Z,0
2023-03-23T23:16:36.078Z,0
2023-03-23T23:27:45.612Z,0
2023-03-23T23:33:08.722Z,0
2023-03-23T23:38:31.667Z,0
2023-03-23T23:43:54.463Z,0
2023-03-23T23:49:17.182Z,0
2023-03-23T23:54:39.724Z,0
